sensor_id;sensor_type;location;lat;lon;timestamp;temperature;humidity
53926;DHT22;39836;52.754;6.866;2022-10-23T00:00:31;11.00;81.80
53926;DHT22;39836;52.754;6.866;2022-10-23T00:02:56;10.90;81.80
53926;DHT22;39836;52.754;6.866;2022-10-23T00:05:25;10.90;81.80
53926;DHT22;39836;52.754;6.866;2022-10-23T00:07:56;10.90;81.80
53926;DHT22;39836;52.754;6.866;2022-10-23T00:10:23;10.90;81.80
53926;DHT22;39836;52.754;6.866;2022-10-23T00:12:50;10.90;81.80
53926;DHT22;39836;52.754;6.866;2022-10-23T00:15:18;10.90;81.80
53926;DHT22;39836;52.754;6.866;2022-10-23T00:17:45;10.90;81.80
53926;DHT22;39836;52.754;6.866;2022-10-23T00:20:11;10.90;81.80
53926;DHT22;39836;52.754;6.866;2022-10-23T00:22:37;10.80;81.70
53926;DHT22;39836;52.754;6.866;2022-10-23T00:25:07;10.90;81.90
53926;DHT22;39836;52.754;6.866;2022-10-23T00:27:34;10.80;81.80
53926;DHT22;39836;52.754;6.866;2022-10-23T00:30:01;10.90;81.80
53926;DHT22;39836;52.754;6.866;2022-10-23T00:32:27;10.80;81.70
53926;DHT22;39836;52.754;6.866;2022-10-23T00:34:53;10.70;81.70
53926;DHT22;39836;52.754;6.866;2022-10-23T00:37:19;10.80;81.80
53926;DHT22;39836;52.754;6.866;2022-10-23T00:39:44;10.90;81.80
53926;DHT22;39836;52.754;6.866;2022-10-23T00:42:15;10.80;81.80
53926;DHT22;39836;52.754;6.866;2022-10-23T00:47:07;10.80;81.80
53926;DHT22;39836;52.754;6.866;2022-10-23T00:49:33;10.80;81.80
53926;DHT22;39836;52.754;6.866;2022-10-23T00:52:02;10.80;81.80
53926;DHT22;39836;52.754;6.866;2022-10-23T00:54:33;10.80;81.80
53926;DHT22;39836;52.754;6.866;2022-10-23T00:57:02;10.70;81.70
53926;DHT22;39836;52.754;6.866;2022-10-23T00:59:28;10.70;81.70
53926;DHT22;39836;52.754;6.866;2022-10-23T01:01:54;10.70;81.70
53926;DHT22;39836;52.754;6.866;2022-10-23T01:04:20;10.70;81.80
53926;DHT22;39836;52.754;6.866;2022-10-23T01:07:11;10.80;81.80
53926;DHT22;39836;52.754;6.866;2022-10-23T01:12:57;10.70;81.80
53926;DHT22;39836;52.754;6.866;2022-10-23T01:15:43;10.70;81.80
53926;DHT22;39836;52.754;6.866;2022-10-23T01:18:25;10.70;81.80
53926;DHT22;39836;52.754;6.866;2022-10-23T01:24:04;10.60;81.70
53926;DHT22;39836;52.754;6.866;2022-10-23T01:29:48;10.50;81.60
53926;DHT22;39836;52.754;6.866;2022-10-23T01:32:23;10.50;81.60
53926;DHT22;39836;52.754;6.866;2022-10-23T01:35:06;10.50;81.60
53926;DHT22;39836;52.754;6.866;2022-10-23T01:37:43;10.50;81.70
53926;DHT22;39836;52.754;6.866;2022-10-23T01:40:29;10.50;81.70
53926;DHT22;39836;52.754;6.866;2022-10-23T01:43:01;10.50;81.70
53926;DHT22;39836;52.754;6.866;2022-10-23T01:45:41;10.50;81.70
53926;DHT22;39836;52.754;6.866;2022-10-23T01:48:11;10.50;81.60
53926;DHT22;39836;52.754;6.866;2022-10-23T01:50:39;10.40;81.70
53926;DHT22;39836;52.754;6.866;2022-10-23T01:53:06;10.50;81.70
53926;DHT22;39836;52.754;6.866;2022-10-23T01:55:32;10.40;81.60
53926;DHT22;39836;52.754;6.866;2022-10-23T01:57:59;10.40;81.60
53926;DHT22;39836;52.754;6.866;2022-10-23T02:00:27;10.40;81.60
53926;DHT22;39836;52.754;6.866;2022-10-23T02:02:53;10.40;81.70
53926;DHT22;39836;52.754;6.866;2022-10-23T02:05:24;10.40;81.70
53926;DHT22;39836;52.754;6.866;2022-10-23T02:07:50;10.40;81.70
53926;DHT22;39836;52.754;6.866;2022-10-23T02:10:17;10.30;81.70
53926;DHT22;39836;52.754;6.866;2022-10-23T02:12:59;10.30;81.70
53926;DHT22;39836;52.754;6.866;2022-10-23T02:20:41;10.30;81.70
53926;DHT22;39836;52.754;6.866;2022-10-23T02:25:58;10.30;81.70
53926;DHT22;39836;52.754;6.866;2022-10-23T02:28:37;10.30;81.70
53926;DHT22;39836;52.754;6.866;2022-10-23T02:31:04;10.20;81.70
53926;DHT22;39836;52.754;6.866;2022-10-23T02:33:33;10.20;81.70
53926;DHT22;39836;52.754;6.866;2022-10-23T02:36:00;10.20;81.70
53926;DHT22;39836;52.754;6.866;2022-10-23T02:38:39;10.20;81.70
53926;DHT22;39836;52.754;6.866;2022-10-23T02:41:24;10.10;81.60
53926;DHT22;39836;52.754;6.866;2022-10-23T02:46:48;10.10;81.70
53926;DHT22;39836;52.754;6.866;2022-10-23T02:54:40;10.00;81.70
53926;DHT22;39836;52.754;6.866;2022-10-23T02:57:31;10.00;81.70
53926;DHT22;39836;52.754;6.866;2022-10-23T03:00:07;10.00;81.70
53926;DHT22;39836;52.754;6.866;2022-10-23T03:05:16;10.00;81.70
53926;DHT22;39836;52.754;6.866;2022-10-23T03:07:43;10.00;81.70
53926;DHT22;39836;52.754;6.866;2022-10-23T03:10:09;10.00;81.70
53926;DHT22;39836;52.754;6.866;2022-10-23T03:12:34;10.00;81.70
53926;DHT22;39836;52.754;6.866;2022-10-23T03:15:00;10.00;81.70
53926;DHT22;39836;52.754;6.866;2022-10-23T03:17:26;10.10;81.80
53926;DHT22;39836;52.754;6.866;2022-10-23T03:19:52;10.00;81.70
53926;DHT22;39836;52.754;6.866;2022-10-23T03:22:17;10.10;81.80
53926;DHT22;39836;52.754;6.866;2022-10-23T03:24:43;10.10;81.80
53926;DHT22;39836;52.754;6.866;2022-10-23T03:27:09;10.10;81.80
53926;DHT22;39836;52.754;6.866;2022-10-23T03:29:36;10.10;81.80
53926;DHT22;39836;52.754;6.866;2022-10-23T03:32:02;10.10;81.80
53926;DHT22;39836;52.754;6.866;2022-10-23T03:34:29;10.10;81.80
53926;DHT22;39836;52.754;6.866;2022-10-23T03:36:55;10.10;81.80
53926;DHT22;39836;52.754;6.866;2022-10-23T03:39:21;10.10;81.80
53926;DHT22;39836;52.754;6.866;2022-10-23T03:41:46;10.10;81.80
53926;DHT22;39836;52.754;6.866;2022-10-23T03:44:12;10.00;81.80
53926;DHT22;39836;52.754;6.866;2022-10-23T03:46:38;10.10;81.80
53926;DHT22;39836;52.754;6.866;2022-10-23T03:49:05;10.10;81.80
53926;DHT22;39836;52.754;6.866;2022-10-23T03:51:30;10.10;81.80
53926;DHT22;39836;52.754;6.866;2022-10-23T03:53:56;10.10;81.80
53926;DHT22;39836;52.754;6.866;2022-10-23T03:56:22;10.00;81.70
53926;DHT22;39836;52.754;6.866;2022-10-23T03:58:48;10.10;81.80
53926;DHT22;39836;52.754;6.866;2022-10-23T04:01:13;10.10;81.80
53926;DHT22;39836;52.754;6.866;2022-10-23T04:03:39;10.10;81.80
53926;DHT22;39836;52.754;6.866;2022-10-23T04:06:05;10.10;81.80
53926;DHT22;39836;52.754;6.866;2022-10-23T04:08:30;10.10;81.90
53926;DHT22;39836;52.754;6.866;2022-10-23T04:10:56;10.10;81.90
53926;DHT22;39836;52.754;6.866;2022-10-23T04:13:22;10.10;81.90
53926;DHT22;39836;52.754;6.866;2022-10-23T04:15:48;10.10;81.90
53926;DHT22;39836;52.754;6.866;2022-10-23T04:18:14;10.10;81.90
53926;DHT22;39836;52.754;6.866;2022-10-23T04:20:40;10.10;81.90
53926;DHT22;39836;52.754;6.866;2022-10-23T04:23:06;10.10;81.90
53926;DHT22;39836;52.754;6.866;2022-10-23T04:25:31;10.10;81.90
53926;DHT22;39836;52.754;6.866;2022-10-23T04:27:57;10.10;81.90
53926;DHT22;39836;52.754;6.866;2022-10-23T04:30:22;10.10;81.90
53926;DHT22;39836;52.754;6.866;2022-10-23T04:32:51;10.10;81.90
53926;DHT22;39836;52.754;6.866;2022-10-23T04:35:18;10.10;81.90
53926;DHT22;39836;52.754;6.866;2022-10-23T04:37:44;10.10;81.90
53926;DHT22;39836;52.754;6.866;2022-10-23T04:40:10;10.10;82.10
53926;DHT22;39836;52.754;6.866;2022-10-23T04:42:36;10.10;82.20
53926;DHT22;39836;52.754;6.866;2022-10-23T04:45:02;10.10;82.30
53926;DHT22;39836;52.754;6.866;2022-10-23T04:47:27;10.10;82.30
53926;DHT22;39836;52.754;6.866;2022-10-23T04:49:54;10.10;82.30
53926;DHT22;39836;52.754;6.866;2022-10-23T04:52:20;10.10;82.30
53926;DHT22;39836;52.754;6.866;2022-10-23T04:54:45;10.00;82.20
53926;DHT22;39836;52.754;6.866;2022-10-23T04:57:11;10.00;82.20
53926;DHT22;39836;52.754;6.866;2022-10-23T04:59:37;10.00;82.20
53926;DHT22;39836;52.754;6.866;2022-10-23T05:02:03;10.00;82.20
53926;DHT22;39836;52.754;6.866;2022-10-23T05:04:28;10.00;82.30
53926;DHT22;39836;52.754;6.866;2022-10-23T05:06:54;10.00;82.30
53926;DHT22;39836;52.754;6.866;2022-10-23T05:09:20;10.00;82.30
53926;DHT22;39836;52.754;6.866;2022-10-23T05:11:47;10.00;82.30
53926;DHT22;39836;52.754;6.866;2022-10-23T05:14:12;10.00;82.30
53926;DHT22;39836;52.754;6.866;2022-10-23T05:16:42;10.00;82.20
53926;DHT22;39836;52.754;6.866;2022-10-23T05:19:10;10.00;82.20
53926;DHT22;39836;52.754;6.866;2022-10-23T05:21:38;10.00;82.30
53926;DHT22;39836;52.754;6.866;2022-10-23T05:24:05;10.00;82.30
53926;DHT22;39836;52.754;6.866;2022-10-23T05:26:31;10.10;82.40
53926;DHT22;39836;52.754;6.866;2022-10-23T05:28:57;10.00;82.30
53926;DHT22;39836;52.754;6.866;2022-10-23T05:31:23;10.10;82.30
53926;DHT22;39836;52.754;6.866;2022-10-23T05:33:51;10.10;82.30
53926;DHT22;39836;52.754;6.866;2022-10-23T05:36:17;10.10;82.30
53926;DHT22;39836;52.754;6.866;2022-10-23T05:38:44;10.10;82.30
53926;DHT22;39836;52.754;6.866;2022-10-23T05:41:10;10.10;82.30
53926;DHT22;39836;52.754;6.866;2022-10-23T05:43:35;10.10;82.30
53926;DHT22;39836;52.754;6.866;2022-10-23T05:46:04;10.20;82.40
53926;DHT22;39836;52.754;6.866;2022-10-23T05:48:31;10.10;82.40
53926;DHT22;39836;52.754;6.866;2022-10-23T05:51:10;10.20;82.40
53926;DHT22;39836;52.754;6.866;2022-10-23T05:53:36;10.20;82.40
53926;DHT22;39836;52.754;6.866;2022-10-23T05:56:03;10.20;82.40
53926;DHT22;39836;52.754;6.866;2022-10-23T05:58:29;10.20;82.40
53926;DHT22;39836;52.754;6.866;2022-10-23T06:00:55;10.20;82.40
53926;DHT22;39836;52.754;6.866;2022-10-23T06:03:21;10.10;82.30
53926;DHT22;39836;52.754;6.866;2022-10-23T06:05:50;10.20;82.30
53926;DHT22;39836;52.754;6.866;2022-10-23T06:08:16;10.20;82.30
53926;DHT22;39836;52.754;6.866;2022-10-23T06:10:42;10.20;82.40
53926;DHT22;39836;52.754;6.866;2022-10-23T06:13:08;10.20;82.40
53926;DHT22;39836;52.754;6.866;2022-10-23T06:15:34;10.20;82.40
53926;DHT22;39836;52.754;6.866;2022-10-23T06:18:03;10.30;82.50
53926;DHT22;39836;52.754;6.866;2022-10-23T06:20:29;10.30;82.50
53926;DHT22;39836;52.754;6.866;2022-10-23T06:22:55;10.30;82.50
53926;DHT22;39836;52.754;6.866;2022-10-23T06:25:21;10.30;82.50
53926;DHT22;39836;52.754;6.866;2022-10-23T06:27:46;10.30;82.50
53926;DHT22;39836;52.754;6.866;2022-10-23T06:30:12;10.40;82.50
53926;DHT22;39836;52.754;6.866;2022-10-23T06:32:38;10.40;82.50
53926;DHT22;39836;52.754;6.866;2022-10-23T06:35:04;10.40;82.50
53926;DHT22;39836;52.754;6.866;2022-10-23T06:37:32;10.40;82.50
53926;DHT22;39836;52.754;6.866;2022-10-23T06:39:58;10.50;82.60
53926;DHT22;39836;52.754;6.866;2022-10-23T06:42:24;10.50;82.60
53926;DHT22;39836;52.754;6.866;2022-10-23T06:44:49;10.50;82.60
53926;DHT22;39836;52.754;6.866;2022-10-23T06:47:15;10.60;82.60
53926;DHT22;39836;52.754;6.866;2022-10-23T06:49:41;10.60;82.60
53926;DHT22;39836;52.754;6.866;2022-10-23T06:52:07;10.60;82.60
53926;DHT22;39836;52.754;6.866;2022-10-23T06:54:33;10.60;82.70
53926;DHT22;39836;52.754;6.866;2022-10-23T06:56:58;10.60;82.60
53926;DHT22;39836;52.754;6.866;2022-10-23T06:59:24;10.60;82.60
53926;DHT22;39836;52.754;6.866;2022-10-23T07:01:50;10.70;82.60
53926;DHT22;39836;52.754;6.866;2022-10-23T07:04:15;10.70;82.60
53926;DHT22;39836;52.754;6.866;2022-10-23T07:06:41;10.70;82.60
53926;DHT22;39836;52.754;6.866;2022-10-23T07:09:07;10.60;82.60
53926;DHT22;39836;52.754;6.866;2022-10-23T07:11:33;10.70;82.60
53926;DHT22;39836;52.754;6.866;2022-10-23T07:13:59;10.70;82.70
53926;DHT22;39836;52.754;6.866;2022-10-23T07:16:25;10.70;82.60
53926;DHT22;39836;52.754;6.866;2022-10-23T07:18:56;10.80;82.60
53926;DHT22;39836;52.754;6.866;2022-10-23T07:21:29;10.80;82.60
53926;DHT22;39836;52.754;6.866;2022-10-23T07:23:56;10.80;82.60
53926;DHT22;39836;52.754;6.866;2022-10-23T07:26:22;10.90;82.60
53926;DHT22;39836;52.754;6.866;2022-10-23T07:28:48;10.90;82.60
53926;DHT22;39836;52.754;6.866;2022-10-23T07:31:22;10.90;82.60
53926;DHT22;39836;52.754;6.866;2022-10-23T07:33:48;10.90;82.60
53926;DHT22;39836;52.754;6.866;2022-10-23T07:36:14;10.90;82.60
53926;DHT22;39836;52.754;6.866;2022-10-23T07:38:40;11.00;82.60
53926;DHT22;39836;52.754;6.866;2022-10-23T07:41:06;11.00;82.60
53926;DHT22;39836;52.754;6.866;2022-10-23T07:43:32;11.00;82.60
53926;DHT22;39836;52.754;6.866;2022-10-23T07:45:58;11.10;82.70
53926;DHT22;39836;52.754;6.866;2022-10-23T07:48:24;11.10;82.70
53926;DHT22;39836;52.754;6.866;2022-10-23T07:50:52;11.10;82.70
53926;DHT22;39836;52.754;6.866;2022-10-23T07:53:23;11.10;82.60
53926;DHT22;39836;52.754;6.866;2022-10-23T07:55:54;11.20;82.70
53926;DHT22;39836;52.754;6.866;2022-10-23T07:58:20;11.20;82.70
53926;DHT22;39836;52.754;6.866;2022-10-23T08:00:50;11.20;82.70
53926;DHT22;39836;52.754;6.866;2022-10-23T08:03:19;11.30;82.70
53926;DHT22;39836;52.754;6.866;2022-10-23T08:05:44;11.40;82.70
53926;DHT22;39836;52.754;6.866;2022-10-23T08:08:10;11.50;82.70
53926;DHT22;39836;52.754;6.866;2022-10-23T08:10:36;11.50;82.70
53926;DHT22;39836;52.754;6.866;2022-10-23T08:13:02;11.60;82.70
53926;DHT22;39836;52.754;6.866;2022-10-23T08:15:27;11.70;82.70
53926;DHT22;39836;52.754;6.866;2022-10-23T08:17:53;11.70;82.70
53926;DHT22;39836;52.754;6.866;2022-10-23T08:20:19;11.70;82.70
53926;DHT22;39836;52.754;6.866;2022-10-23T08:22:44;11.80;82.70
53926;DHT22;39836;52.754;6.866;2022-10-23T08:25:10;11.80;82.70
53926;DHT22;39836;52.754;6.866;2022-10-23T08:27:37;11.80;82.70
53926;DHT22;39836;52.754;6.866;2022-10-23T08:30:03;11.90;82.70
53926;DHT22;39836;52.754;6.866;2022-10-23T08:32:29;11.90;82.70
53926;DHT22;39836;52.754;6.866;2022-10-23T08:34:55;12.00;82.70
53926;DHT22;39836;52.754;6.866;2022-10-23T08:37:21;12.00;82.70
53926;DHT22;39836;52.754;6.866;2022-10-23T08:39:47;12.10;82.80
53926;DHT22;39836;52.754;6.866;2022-10-23T08:42:26;12.20;82.70
53926;DHT22;39836;52.754;6.866;2022-10-23T08:45:02;12.30;82.70
53926;DHT22;39836;52.754;6.866;2022-10-23T08:47:38;12.30;82.70
53926;DHT22;39836;52.754;6.866;2022-10-23T08:50:13;12.40;82.80
53926;DHT22;39836;52.754;6.866;2022-10-23T08:52:49;12.50;82.80
53926;DHT22;39836;52.754;6.866;2022-10-23T08:55:26;12.60;82.80
53926;DHT22;39836;52.754;6.866;2022-10-23T09:00:22;12.80;82.70
53926;DHT22;39836;52.754;6.866;2022-10-23T09:02:52;12.90;82.80
53926;DHT22;39836;52.754;6.866;2022-10-23T09:11:23;13.20;82.60
53926;DHT22;39836;52.754;6.866;2022-10-23T09:14:18;13.30;82.50
53926;DHT22;39836;52.754;6.866;2022-10-23T09:19:34;13.40;82.40
53926;DHT22;39836;52.754;6.866;2022-10-23T09:22:00;13.50;82.40
53926;DHT22;39836;52.754;6.866;2022-10-23T09:24:26;13.50;82.20
53926;DHT22;39836;52.754;6.866;2022-10-23T09:26:56;13.50;82.30
53926;DHT22;39836;52.754;6.866;2022-10-23T09:29:33;13.60;82.20
53926;DHT22;39836;52.754;6.866;2022-10-23T09:32:03;13.60;82.30
53926;DHT22;39836;52.754;6.866;2022-10-23T09:34:31;13.60;82.20
53926;DHT22;39836;52.754;6.866;2022-10-23T09:39:43;13.70;82.30
53926;DHT22;39836;52.754;6.866;2022-10-23T09:42:22;13.70;82.30
53926;DHT22;39836;52.754;6.866;2022-10-23T09:44:51;13.70;82.30
53926;DHT22;39836;52.754;6.866;2022-10-23T09:47:19;13.80;82.30
53926;DHT22;39836;52.754;6.866;2022-10-23T09:49:47;13.80;82.30
53926;DHT22;39836;52.754;6.866;2022-10-23T09:54:49;13.90;82.30
53926;DHT22;39836;52.754;6.866;2022-10-23T09:57:36;14.00;82.30
53926;DHT22;39836;52.754;6.866;2022-10-23T10:02:40;14.10;82.30
53926;DHT22;39836;52.754;6.866;2022-10-23T10:05:35;14.10;82.20
53926;DHT22;39836;52.754;6.866;2022-10-23T10:10:59;14.30;82.20
53926;DHT22;39836;52.754;6.866;2022-10-23T10:16:10;14.40;82.00
53926;DHT22;39836;52.754;6.866;2022-10-23T10:21:26;14.50;81.80
53926;DHT22;39836;52.754;6.866;2022-10-23T10:40:50;14.80;81.60
53926;DHT22;39836;52.754;6.866;2022-10-23T10:43:42;14.90;81.90
53926;DHT22;39836;52.754;6.866;2022-10-23T10:46:30;14.90;81.70
53926;DHT22;39836;52.754;6.866;2022-10-23T10:49:09;15.00;81.60
53926;DHT22;39836;52.754;6.866;2022-10-23T10:57:03;15.00;81.50
53926;DHT22;39836;52.754;6.866;2022-10-23T10:59:31;15.10;81.40
53926;DHT22;39836;52.754;6.866;2022-10-23T11:02:33;15.10;81.30
53926;DHT22;39836;52.754;6.866;2022-10-23T11:05:12;15.10;81.30
53926;DHT22;39836;52.754;6.866;2022-10-23T11:07:50;15.10;80.90
53926;DHT22;39836;52.754;6.866;2022-10-23T11:10:17;15.10;81.20
53926;DHT22;39836;52.754;6.866;2022-10-23T11:12:47;15.10;81.20
53926;DHT22;39836;52.754;6.866;2022-10-23T11:15:37;15.10;81.10
53926;DHT22;39836;52.754;6.866;2022-10-23T11:18:10;15.10;81.20
53926;DHT22;39836;52.754;6.866;2022-10-23T11:23:39;15.10;81.30
53926;DHT22;39836;52.754;6.866;2022-10-23T11:26:09;15.10;81.20
53926;DHT22;39836;52.754;6.866;2022-10-23T11:31:38;15.10;81.30
53926;DHT22;39836;52.754;6.866;2022-10-23T11:37:02;15.10;81.30
53926;DHT22;39836;52.754;6.866;2022-10-23T11:39:34;15.20;81.30
53926;DHT22;39836;52.754;6.866;2022-10-23T11:49:50;15.40;80.80
53926;DHT22;39836;52.754;6.866;2022-10-23T11:52:23;15.40;80.80
53926;DHT22;39836;52.754;6.866;2022-10-23T11:55:17;15.40;81.00
53926;DHT22;39836;52.754;6.866;2022-10-23T11:58:00;15.40;80.90
53926;DHT22;39836;52.754;6.866;2022-10-23T12:00:33;15.40;81.00
53926;DHT22;39836;52.754;6.866;2022-10-23T12:02:59;15.50;80.90
53926;DHT22;39836;52.754;6.866;2022-10-23T12:08:04;15.60;80.70
53926;DHT22;39836;52.754;6.866;2022-10-23T12:10:34;15.60;80.60
53926;DHT22;39836;52.754;6.866;2022-10-23T12:13:02;15.60;80.40
53926;DHT22;39836;52.754;6.866;2022-10-23T12:15:29;15.70;80.10
53926;DHT22;39836;52.754;6.866;2022-10-23T12:18:13;15.70;80.60
53926;DHT22;39836;52.754;6.866;2022-10-23T12:20:53;15.70;80.20
53926;DHT22;39836;52.754;6.866;2022-10-23T12:35:05;15.90;80.40
53926;DHT22;39836;52.754;6.866;2022-10-23T12:40:16;16.00;80.30
53926;DHT22;39836;52.754;6.866;2022-10-23T12:42:49;16.00;80.50
53926;DHT22;39836;52.754;6.866;2022-10-23T12:45:22;16.10;80.40
53926;DHT22;39836;52.754;6.866;2022-10-23T12:47:49;16.00;80.10
53926;DHT22;39836;52.754;6.866;2022-10-23T12:50:28;16.00;80.30
53926;DHT22;39836;52.754;6.866;2022-10-23T12:53:05;16.00;80.30
53926;DHT22;39836;52.754;6.866;2022-10-23T12:55:56;16.00;80.20
53926;DHT22;39836;52.754;6.866;2022-10-23T12:58:31;16.00;79.90
53926;DHT22;39836;52.754;6.866;2022-10-23T13:01:00;15.90;80.20
53926;DHT22;39836;52.754;6.866;2022-10-23T13:03:28;15.90;80.20
53926;DHT22;39836;52.754;6.866;2022-10-23T13:05:56;15.90;80.30
53926;DHT22;39836;52.754;6.866;2022-10-23T13:08:28;15.90;80.30
53926;DHT22;39836;52.754;6.866;2022-10-23T13:10:56;15.90;80.10
53926;DHT22;39836;52.754;6.866;2022-10-23T13:13:22;15.90;80.30
53926;DHT22;39836;52.754;6.866;2022-10-23T13:15:49;15.90;80.30
53926;DHT22;39836;52.754;6.866;2022-10-23T13:18:15;15.90;80.30
53926;DHT22;39836;52.754;6.866;2022-10-23T13:23:33;16.00;80.10
53926;DHT22;39836;52.754;6.866;2022-10-23T13:26:18;16.00;80.00
53926;DHT22;39836;52.754;6.866;2022-10-23T13:28:46;16.10;80.00
53926;DHT22;39836;52.754;6.866;2022-10-23T13:33:46;16.20;80.10
53926;DHT22;39836;52.754;6.866;2022-10-23T13:38:42;16.20;79.90
53926;DHT22;39836;52.754;6.866;2022-10-23T13:41:17;16.20;80.20
53926;DHT22;39836;52.754;6.866;2022-10-23T13:43:45;16.20;80.00
53926;DHT22;39836;52.754;6.866;2022-10-23T13:46:29;16.20;80.00
53926;DHT22;39836;52.754;6.866;2022-10-23T13:48:54;16.20;80.10
53926;DHT22;39836;52.754;6.866;2022-10-23T13:51:26;16.10;80.00
53926;DHT22;39836;52.754;6.866;2022-10-23T13:53:52;16.10;80.00
53926;DHT22;39836;52.754;6.866;2022-10-23T13:56:19;16.10;80.20
53926;DHT22;39836;52.754;6.866;2022-10-23T13:58:46;16.10;80.30
53926;DHT22;39836;52.754;6.866;2022-10-23T14:01:20;16.00;80.20
53926;DHT22;39836;52.754;6.866;2022-10-23T14:03:48;16.00;80.30
53926;DHT22;39836;52.754;6.866;2022-10-23T14:06:13;16.00;80.50
53926;DHT22;39836;52.754;6.866;2022-10-23T14:08:39;16.00;80.20
53926;DHT22;39836;52.754;6.866;2022-10-23T14:11:05;16.00;80.10
53926;DHT22;39836;52.754;6.866;2022-10-23T14:13:31;16.00;80.30
53926;DHT22;39836;52.754;6.866;2022-10-23T14:15:57;16.00;80.40
53926;DHT22;39836;52.754;6.866;2022-10-23T14:18:22;16.00;80.30
53926;DHT22;39836;52.754;6.866;2022-10-23T14:20:48;15.90;80.30
53926;DHT22;39836;52.754;6.866;2022-10-23T14:23:14;16.00;80.40
53926;DHT22;39836;52.754;6.866;2022-10-23T14:25:40;15.90;80.50
53926;DHT22;39836;52.754;6.866;2022-10-23T14:28:06;15.90;80.50
53926;DHT22;39836;52.754;6.866;2022-10-23T14:30:31;15.90;80.40
53926;DHT22;39836;52.754;6.866;2022-10-23T14:32:57;15.90;80.50
53926;DHT22;39836;52.754;6.866;2022-10-23T14:35:23;15.90;80.50
53926;DHT22;39836;52.754;6.866;2022-10-23T14:37:49;15.80;80.50
53926;DHT22;39836;52.754;6.866;2022-10-23T14:40:15;15.80;80.50
53926;DHT22;39836;52.754;6.866;2022-10-23T14:42:41;15.90;80.50
53926;DHT22;39836;52.754;6.866;2022-10-23T14:45:07;15.90;80.60
53926;DHT22;39836;52.754;6.866;2022-10-23T14:47:33;15.90;80.50
53926;DHT22;39836;52.754;6.866;2022-10-23T14:49:58;15.90;80.50
53926;DHT22;39836;52.754;6.866;2022-10-23T14:52:24;15.90;80.50
53926;DHT22;39836;52.754;6.866;2022-10-23T14:54:51;16.00;80.50
53926;DHT22;39836;52.754;6.866;2022-10-23T14:57:18;16.00;80.30
53926;DHT22;39836;52.754;6.866;2022-10-23T14:59:46;16.00;80.40
53926;DHT22;39836;52.754;6.866;2022-10-23T15:02:11;16.00;80.50
53926;DHT22;39836;52.754;6.866;2022-10-23T15:04:38;15.90;80.40
53926;DHT22;39836;52.754;6.866;2022-10-23T15:07:04;16.00;80.40
53926;DHT22;39836;52.754;6.866;2022-10-23T15:09:30;16.00;80.40
53926;DHT22;39836;52.754;6.866;2022-10-23T15:12:01;15.90;80.40
53926;DHT22;39836;52.754;6.866;2022-10-23T15:14:27;15.90;80.40
53926;DHT22;39836;52.754;6.866;2022-10-23T15:16:53;15.90;80.40
53926;DHT22;39836;52.754;6.866;2022-10-23T15:19:18;15.90;80.40
53926;DHT22;39836;52.754;6.866;2022-10-23T15:21:45;15.90;80.40
53926;DHT22;39836;52.754;6.866;2022-10-23T15:24:11;15.80;80.50
53926;DHT22;39836;52.754;6.866;2022-10-23T15:26:37;15.90;80.40
53926;DHT22;39836;52.754;6.866;2022-10-23T15:29:04;15.80;80.50
53926;DHT22;39836;52.754;6.866;2022-10-23T15:34:33;15.80;80.50
53926;DHT22;39836;52.754;6.866;2022-10-23T15:37:00;15.70;80.60
53926;DHT22;39836;52.754;6.866;2022-10-23T15:39:28;15.80;80.70
53926;DHT22;39836;52.754;6.866;2022-10-23T15:41:58;15.70;80.60
53926;DHT22;39836;52.754;6.866;2022-10-23T15:44:25;15.70;80.50
53926;DHT22;39836;52.754;6.866;2022-10-23T15:46:51;15.70;80.60
53926;DHT22;39836;52.754;6.866;2022-10-23T15:49:17;15.70;80.50
53926;DHT22;39836;52.754;6.866;2022-10-23T15:51:44;15.60;80.50
53926;DHT22;39836;52.754;6.866;2022-10-23T15:54:12;15.60;80.50
53926;DHT22;39836;52.754;6.866;2022-10-23T15:56:41;15.60;80.60
53926;DHT22;39836;52.754;6.866;2022-10-23T15:59:07;15.50;80.60
53926;DHT22;39836;52.754;6.866;2022-10-23T16:01:33;15.50;80.60
53926;DHT22;39836;52.754;6.866;2022-10-23T16:03:59;15.40;80.60
53926;DHT22;39836;52.754;6.866;2022-10-23T16:06:24;15.40;80.70
53926;DHT22;39836;52.754;6.866;2022-10-23T16:08:50;15.40;80.80
53926;DHT22;39836;52.754;6.866;2022-10-23T16:11:22;15.30;80.80
53926;DHT22;39836;52.754;6.866;2022-10-23T16:13:48;15.30;80.90
53926;DHT22;39836;52.754;6.866;2022-10-23T16:16:14;15.30;80.90
53926;DHT22;39836;52.754;6.866;2022-10-23T16:18:40;15.30;80.90
53926;DHT22;39836;52.754;6.866;2022-10-23T16:21:18;15.30;80.90
53926;DHT22;39836;52.754;6.866;2022-10-23T16:23:44;15.30;80.90
53926;DHT22;39836;52.754;6.866;2022-10-23T16:26:10;15.30;80.90
53926;DHT22;39836;52.754;6.866;2022-10-23T16:28:36;15.30;80.90
53926;DHT22;39836;52.754;6.866;2022-10-23T16:31:07;15.30;80.90
53926;DHT22;39836;52.754;6.866;2022-10-23T16:33:33;15.30;80.90
53926;DHT22;39836;52.754;6.866;2022-10-23T16:36:06;15.30;80.90
53926;DHT22;39836;52.754;6.866;2022-10-23T16:38:32;15.30;80.80
53926;DHT22;39836;52.754;6.866;2022-10-23T16:40:57;15.40;80.80
53926;DHT22;39836;52.754;6.866;2022-10-23T16:43:23;15.40;80.70
53926;DHT22;39836;52.754;6.866;2022-10-23T16:46:02;15.40;80.70
53926;DHT22;39836;52.754;6.866;2022-10-23T16:48:28;15.30;80.70
53926;DHT22;39836;52.754;6.866;2022-10-23T16:50:54;15.30;80.80
53926;DHT22;39836;52.754;6.866;2022-10-23T16:53:20;15.40;80.90
53926;DHT22;39836;52.754;6.866;2022-10-23T16:55:46;15.30;80.90
53926;DHT22;39836;52.754;6.866;2022-10-23T16:58:12;15.20;80.90
53926;DHT22;39836;52.754;6.866;2022-10-23T17:00:38;15.20;81.00
53926;DHT22;39836;52.754;6.866;2022-10-23T17:03:04;15.10;81.00
53926;DHT22;39836;52.754;6.866;2022-10-23T17:05:33;15.10;81.10
53926;DHT22;39836;52.754;6.866;2022-10-23T17:08:00;15.10;81.20
53926;DHT22;39836;52.754;6.866;2022-10-23T17:10:26;15.10;81.30
53926;DHT22;39836;52.754;6.866;2022-10-23T17:12:51;15.10;81.30
53926;DHT22;39836;52.754;6.866;2022-10-23T17:15:17;15.10;81.30
53926;DHT22;39836;52.754;6.866;2022-10-23T17:17:44;15.20;81.30
53926;DHT22;39836;52.754;6.866;2022-10-23T17:20:11;15.20;81.20
53926;DHT22;39836;52.754;6.866;2022-10-23T17:22:36;15.20;81.20
53926;DHT22;39836;52.754;6.866;2022-10-23T17:25:04;15.20;81.20
53926;DHT22;39836;52.754;6.866;2022-10-23T17:27:30;15.30;81.20
53926;DHT22;39836;52.754;6.866;2022-10-23T17:29:56;15.40;81.10
53926;DHT22;39836;52.754;6.866;2022-10-23T17:32:22;15.40;81.10
53926;DHT22;39836;52.754;6.866;2022-10-23T17:34:48;15.40;81.00
53926;DHT22;39836;52.754;6.866;2022-10-23T17:37:14;15.40;81.00
53926;DHT22;39836;52.754;6.866;2022-10-23T17:39:40;15.50;81.10
53926;DHT22;39836;52.754;6.866;2022-10-23T17:42:05;15.40;81.00
53926;DHT22;39836;52.754;6.866;2022-10-23T17:44:32;15.50;81.00